Accueil
METAR-TAF:

METAR-TAF

Aéroports :

Venise, Italie

Aéroport de Venise-Marco-Polo

latitude: 45-30N, longitude: 012-20E, altitude: 2 m

Observation

Le bulletin a été fait il y a 34 minutes, à 09:50 UTC
Vent 12 kt de nord-est
Température 7°C
Humidité 61%
Pression 1011 hPa
Visibilité 10 km ou plus
pas de nuages en-dessous de 1500 mètres et pas de cumulonimbus.

METAR: LIPZ 240950Z 05012KT CAVOK 07/00 Q1011 NOSIG

Heure: 11:24 (10:24 UTC)

Prévision

Le bulletin a été fait il y a 5 heures et 24 minutes, à 05:00 UTC
Prévision valable du 24 à 06 UTC au 25 à 12 UTC
Vent 20 kt de nord-est avec des rafales jusqu'à 30 kt
Visibilité 10 km ou plus
Nuages fragmentés à une hauteur de 4000 ft

TAF: LIPZ 240500Z 2406/2512 05020G30KT 9999 BKN040

Observations et prévisions météorologiques de plus de 4000 aéroports (messages METAR et TAF).

Les stations disponibles sont représentées par des disques jaunes et rouges sur la carte.

Passer la souris dessus pour voir le nom de la station.

Cliquer dessus pour voir les observations et prévisions météorologiques.

Pour changer de carte: cliquez sur les boutons verts avec une croix noire pour zoomer, sur le bouton vert avec un tiret pour effectuer un zoom arrière, ou sur les flèches vertes pour les cartes adjacentes.


METAR-TAF: